Time;durP1;ratioP1;P1;durP2;ratioP2;P2;SDS_P1;SDS_P2;PMS_P1;PMS_P2;Temp;Humidity;BMP_temperature;BMP_pressure;BME280_temperature;BME280_humidity;BME280_pressure;Samples;Min_cycle;Max_cycle;Signal;HPM_P1;HPM_P2
2023/03/19 00:02:06;;;;;;;5.15;2.35;;;;;;;1.28;100.00;99400.56;5140502;28;20051;-56
2023/03/19 00:04:33;;;;;;;8.38;2.58;;;;;;;1.31;100.00;99391.88;5140515;27;20043;-56
2023/03/19 00:06:59;;;;;;;7.95;2.30;;;;;;;1.23;100.00;99394.44;5140790;28;20043;-56
2023/03/19 00:09:26;;;;;;;3.67;2.35;;;;;;;1.20;100.00;99387.75;5140746;28;20053;-57
2023/03/19 00:11:52;;;;;;;4.03;2.50;;;;;;;1.22;100.00;99380.16;5140433;28;20118;-60
2023/03/19 00:14:18;;;;;;;4.63;2.08;;;;;;;1.14;100.00;99383.53;5140516;28;20089;-59
2023/03/19 00:16:44;;;;;;;3.80;2.50;;;;;;;1.29;100.00;99380.56;5140369;28;20138;-63
2023/03/19 00:19:10;;;;;;;8.02;2.63;;;;;;;1.25;100.00;99384.97;5140634;28;20078;-63
2023/03/19 00:21:36;;;;;;;2.92;1.83;;;;;;;1.21;100.00;99370.44;5140124;28;20058;-61
2023/03/19 00:24:03;;;;;;;5.30;2.33;;;;;;;1.06;100.00;99365.31;5140623;28;20047;-63
2023/03/19 00:26:29;;;;;;;3.88;1.83;;;;;;;1.03;100.00;99368.59;5140116;28;20412;-59
2023/03/19 00:28:55;;;;;;;3.50;1.88;;;;;;;1.06;100.00;99357.22;5140306;28;20054;-61
2023/03/19 00:31:22;;;;;;;4.78;2.33;;;;;;;0.92;100.00;99365.28;5140367;28;20186;-63
2023/03/19 00:33:48;;;;;;;7.15;2.28;;;;;;;1.06;100.00;99354.50;5140183;28;20051;-63
2023/03/19 00:36:15;;;;;;;7.72;2.35;;;;;;;1.03;100.00;99352.41;5140103;27;20066;-63
2023/03/19 00:38:42;;;;;;;3.50;2.10;;;;;;;0.98;100.00;99347.91;5140112;28;20047;-58
2023/03/19 00:41:08;;;;;;;5.80;2.42;;;;;;;0.71;100.00;99351.34;5140382;28;20055;-57
2023/03/19 00:43:34;;;;;;;6.00;1.80;;;;;;;0.68;100.00;99333.03;5139880;28;20149;-57
2023/03/19 00:46:00;;;;;;;8.13;2.75;;;;;;;0.71;100.00;99324.34;5140422;28;20047;-57
2023/03/19 00:48:26;;;;;;;6.10;1.90;;;;;;;0.68;100.00;99320.34;5139890;28;20132;-60
2023/03/19 00:50:52;;;;;;;7.93;2.10;;;;;;;0.61;100.00;99311.03;5140175;28;20455;-58
2023/03/19 00:53:19;;;;;;;5.93;2.13;;;;;;;0.60;100.00;99314.81;5139703;28;20051;-59
2023/03/19 00:55:45;;;;;;;11.15;1.73;;;;;;;0.65;100.00;99320.13;5140148;28;20051;-62
2023/03/19 00:58:11;;;;;;;4.35;2.13;;;;;;;0.78;100.00;99305.06;5139965;28;20051;-63
2023/03/19 01:00:38;;;;;;;2.40;1.45;;;;;;;0.75;100.00;99303.75;5139611;28;20138;-59
2023/03/19 01:03:05;;;;;;;5.22;2.35;;;;;;;0.60;100.00;99309.41;5138474;27;20066;-62
2023/03/19 01:05:33;;;;;;;7.03;2.53;;;;;;;0.58;100.00;99301.63;5139791;27;20054;-63
2023/03/19 01:07:59;;;;;;;3.08;1.83;;;;;;;0.57;100.00;99286.53;5139703;28;20134;-60
2023/03/19 01:10:25;;;;;;;5.03;2.05;;;;;;;0.73;100.00;99291.66;5139533;28;20146;-61
2023/03/19 01:12:52;;;;;;;4.43;2.47;;;;;;;0.62;100.00;99283.75;5139740;28;20051;-63
2023/03/19 01:15:18;;;;;;;1.90;1.58;;;;;;;0.28;100.00;99289.44;5139505;28;20421;-64
2023/03/19 01:17:44;;;;;;;3.13;1.90;;;;;;;0.33;100.00;99280.44;5139765;28;20401;-63
2023/03/19 01:20:13;;;;;;;4.93;2.15;;;;;;;0.39;100.00;99260.41;5140090;28;20051;-58
2023/03/19 01:22:40;;;;;;;4.82;2.17;;;;;;;0.14;100.00;99277.78;5140243;28;20104;-61
2023/03/19 01:25:07;;;;;;;5.95;2.08;;;;;;;0.37;100.00;99278.78;5139461;28;20047;-63
2023/03/19 01:27:33;;;;;;;6.72;2.47;;;;;;;0.60;100.00;99264.38;5139434;28;20054;-57
2023/03/19 01:30:00;;;;;;;5.80;2.10;;;;;;;0.73;100.00;99284.34;5139444;28;20416;-61
2023/03/19 01:32:26;;;;;;;4.68;2.10;;;;;;;0.55;100.00;99283.31;5139239;28;20104;-63
2023/03/19 01:34:52;;;;;;;9.93;2.30;;;;;;;0.63;100.00;99284.53;5139378;27;20047;-62
2023/03/19 01:37:18;;;;;;;8.48;2.20;;;;;;;0.29;100.00;99282.94;5138987;28;20508;-63
2023/03/19 01:39:44;;;;;;;4.70;2.38;;;;;;;0.59;100.00;99278.94;5139314;28;20361;-58
2023/03/19 01:42:11;;;;;;;7.32;3.25;;;;;;;0.66;100.00;99271.25;5138820;28;20095;-58
2023/03/19 01:44:39;;;;;;;8.80;2.30;;;;;;;0.29;100.00;99272.16;5139343;28;20079;-57
2023/03/19 01:47:13;;;;;;;6.03;2.30;;;;;;;0.49;100.00;99264.81;5138871;28;20047;-61
2023/03/19 01:49:39;;;;;;;7.38;2.95;;;;;;;0.18;100.00;99276.09;5139304;28;20043;-59
2023/03/19 01:52:08;;;;;;;6.85;2.17;;;;;;;0.38;100.00;99269.59;5139022;28;20061;-63
2023/03/19 01:54:35;;;;;;;5.85;2.28;;;;;;;0.22;100.00;99266.34;5139255;28;20077;-63
2023/03/19 01:57:05;;;;;;;4.45;2.20;;;;;;;0.44;100.00;99261.13;5138975;28;20147;-60
2023/03/19 01:59:34;;;;;;;5.47;2.70;;;;;;;0.51;100.00;99263.44;5138838;28;20344;-56
2023/03/19 02:02:04;;;;;;;6.40;2.55;;;;;;;0.39;100.00;99266.59;5138888;28;20047;-56
2023/03/19 02:04:33;;;;;;;4.55;2.30;;;;;;;0.52;100.00;99256.16;5138567;27;20138;-57
2023/03/19 02:07:01;;;;;;;3.90;2.28;;;;;;;0.19;100.00;99259.63;5138870;28;20409;-57
2023/03/19 02:09:29;;;;;;;9.25;2.65;;;;;;;0.43;100.00;99264.94;5138496;28;20145;-56
2023/03/19 02:11:56;;;;;;;4.43;2.28;;;;;;;0.14;100.00;99254.31;5139061;28;20051;-60
2023/03/19 02:14:22;;;;;;;2.88;2.05;;;;;;;0.35;100.00;99235.91;5138195;27;20138;-54
2023/03/19 02:16:48;;;;;;;11.63;2.13;;;;;;;0.30;100.00;99246.81;5138619;28;20142;-62
2023/03/19 02:19:18;;;;;;;3.78;2.10;;;;;;;0.16;100.00;99240.53;5138570;28;20047;-58
2023/03/19 02:21:44;;;;;;;6.65;2.28;;;;;;;-0.02;100.00;99221.41;5138440;28;20138;-62
2023/03/19 02:24:16;;;;;;;9.35;2.70;;;;;;;0.02;100.00;99204.66;5138601;28;20118;-62
2023/03/19 02:26:45;;;;;;;8.98;2.55;;;;;;;0.05;100.00;99193.28;5138153;28;20054;-61
2023/03/19 02:29:11;;;;;;;4.93;2.20;;;;;;;-0.12;100.00;99188.44;5138588;28;20294;-59
2023/03/19 02:31:37;;;;;;;2.88;1.90;;;;;;;-0.21;100.00;99172.13;5138229;28;20066;-60
2023/03/19 02:34:05;;;;;;;6.75;2.78;;;;;;;0.02;100.00;99175.81;5138563;28;20366;-60
2023/03/19 02:36:36;;;;;;;5.53;2.65;;;;;;;-0.10;100.00;99176.28;5138120;28;20137;-59
2023/03/19 02:39:04;;;;;;;7.30;2.35;;;;;;;-0.27;100.00;99157.13;5138511;28;20058;-58
2023/03/19 02:41:32;;;;;;;3.33;2.10;;;;;;;0.10;100.00;99160.84;5137981;28;20138;-54
2023/03/19 02:44:02;;;;;;;6.47;2.33;;;;;;;-0.17;100.00;99167.75;5138094;28;20051;-58
2023/03/19 02:46:28;;;;;;;8.25;3.00;;;;;;;0.05;100.00;99139.38;5138336;28;20134;-57
2023/03/19 02:48:54;;;;;;;10.50;2.65;;;;;;;-0.26;100.00;99139.88;5138049;28;20297;-59
2023/03/19 02:51:20;;;;;;;4.63;2.13;;;;;;;-0.01;100.00;99134.06;5138211;28;20132;-62
2023/03/19 02:53:46;;;;;;;7.55;2.53;;;;;;;0.11;100.00;99148.97;5137979;28;20328;-63
2023/03/19 02:56:12;;;;;;;6.18;2.95;;;;;;;-0.06;100.00;99163.81;5138190;28;20073;-61
2023/03/19 02:58:38;;;;;;;6.28;2.55;;;;;;;0.28;100.00;99149.22;5137714;28;20141;-55
2023/03/19 03:01:06;;;;;;;5.78;2.45;;;;;;;-0.05;100.00;99141.16;5138149;28;20141;-54
2023/03/19 03:03:32;;;;;;;3.45;2.40;;;;;;;-0.13;100.00;99144.53;5137521;28;20107;-56
2023/03/19 03:05:57;;;;;;;3.33;2.03;;;;;;;-0.01;100.00;99144.84;5138042;27;20059;-59
2023/03/19 03:08:23;;;;;;;3.20;2.10;;;;;;;0.06;100.00;99143.66;5137685;28;20082;-55
2023/03/19 03:10:49;;;;;;;6.90;2.70;;;;;;;-0.16;100.00;99150.50;5137798;28;20054;-55
2023/03/19 03:13:16;;;;;;;5.22;2.45;;;;;;;0.09;100.00;99143.88;5137837;28;20137;-62
2023/03/19 03:15:41;;;;;;;6.00;2.70;;;;;;;0.18;100.00;99144.81;5137695;28;20078;-59
2023/03/19 03:18:08;;;;;;;5.97;2.78;;;;;;;0.12;100.00;99156.75;5137730;28;20051;-54
2023/03/19 03:20:34;;;;;;;4.88;2.00;;;;;;;-0.03;100.00;99143.56;5137596;28;20055;-58
2023/03/19 03:23:00;;;;;;;3.83;2.33;;;;;;;0.03;100.00;99118.09;5137629;28;20066;-57
2023/03/19 03:25:26;;;;;;;5.38;2.55;;;;;;;0.08;100.00;99117.22;5136873;27;20073;-59
2023/03/19 03:27:52;;;;;;;7.15;2.50;;;;;;;-0.19;100.00;99115.25;5137906;28;20058;-63
2023/03/19 03:30:19;;;;;;;7.22;2.80;;;;;;;-0.25;100.00;99109.94;5137338;28;20324;-61
2023/03/19 03:32:45;;;;;;;5.93;2.78;;;;;;;0.36;100.00;99099.97;5137659;28;20418;-58
2023/03/19 03:35:14;;;;;;;4.03;2.10;;;;;;;-0.11;100.00;99112.69;5137135;27;20146;-61
2023/03/19 03:37:41;;;;;;;6.75;2.42;;;;;;;0.19;100.00;99089.78;5137653;28;20149;-62
2023/03/19 03:40:08;;;;;;;4.03;2.28;;;;;;;-0.18;100.00;99084.53;5137345;28;20066;-60
2023/03/19 03:42:35;;;;;;;3.10;2.35;;;;;;;0.04;100.00;99071.19;5137480;28;20083;-59
2023/03/19 03:45:01;;;;;;;6.05;3.05;;;;;;;-0.14;100.00;99055.88;5137186;28;20057;-62
2023/03/19 03:47:27;;;;;;;10.38;2.65;;;;;;;-0.14;100.00;99047.81;5137067;28;20090;-56
2023/03/19 03:49:53;;;;;;;6.22;2.85;;;;;;;-0.22;100.00;99051.97;5137406;28;20043;-58
2023/03/19 03:52:20;;;;;;;5.90;3.08;;;;;;;0.09;100.00;99041.44;5137168;28;20146;-56
2023/03/19 03:54:45;;;;;;;7.72;2.30;;;;;;;-0.05;100.00;99046.81;5137365;28;20142;-56
2023/03/19 03:57:11;;;;;;;12.35;3.05;;;;;;;-0.11;100.00;99039.13;5137060;28;20051;-59
2023/03/19 03:59:37;;;;;;;5.10;2.95;;;;;;;-0.24;100.00;99052.25;5137382;28;20143;-61
2023/03/19 04:02:03;;;;;;;6.32;3.53;;;;;;;0.07;100.00;99032.88;5136762;28;20392;-62
2023/03/19 04:04:29;;;;;;;6.03;3.05;;;;;;;-0.09;100.00;99037.75;5137258;27;20043;-62
2023/03/19 04:06:56;;;;;;;6.97;2.92;;;;;;;0.07;100.00;99019.41;5136781;28;20043;-55
2023/03/19 04:09:22;;;;;;;5.32;2.78;;;;;;;0.32;100.00;99022.69;5137075;28;20100;-56
2023/03/19 04:11:48;;;;;;;5.63;2.92;;;;;;;0.05;100.00;99045.03;5137115;28;20051;-58
2023/03/19 04:14:15;;;;;;;9.32;3.30;;;;;;;0.27;100.00;99042.47;5136726;28;20134;-57
2023/03/19 04:16:42;;;;;;;6.47;2.80;;;;;;;0.37;100.00;99055.75;5137130;28;20058;-63
2023/03/19 04:19:08;;;;;;;5.68;2.70;;;;;;;0.20;100.00;99061.75;5136779;28;20332;-59
2023/03/19 04:21:34;;;;;;;5.35;2.65;;;;;;;0.20;100.00;99058.22;5137150;28;20043;-58
2023/03/19 04:24:01;;;;;;;6.15;3.00;;;;;;;-0.08;100.00;99047.41;5136633;28;20089;-58
2023/03/19 04:26:27;;;;;;;5.45;3.17;;;;;;;0.52;100.00;99037.66;5137023;28;20055;-63
2023/03/19 04:28:53;;;;;;;9.68;3.60;;;;;;;0.45;100.00;99060.44;5136509;28;20138;-64
2023/03/19 04:31:19;;;;;;;10.02;3.22;;;;;;;0.05;100.00;99064.69;5137054;28;20043;-60
2023/03/19 04:33:45;;;;;;;6.65;3.35;;;;;;;0.49;100.00;99039.03;5136494;28;20146;-59
2023/03/19 04:36:11;;;;;;;5.55;3.03;;;;;;;0.21;100.00;99067.91;5136990;27;20048;-58
2023/03/19 04:38:37;;;;;;;7.97;3.13;;;;;;;0.17;100.00;99050.75;5139655;28;20095;-60
2023/03/19 04:41:03;;;;;;;4.80;2.85;;;;;;;0.27;100.00;99036.25;5140007;28;20404;-63
2023/03/19 04:43:30;;;;;;;7.30;3.28;;;;;;;0.25;100.00;99024.97;5141227;28;20530;-59
2023/03/19 04:45:56;;;;;;;5.20;2.75;;;;;;;0.46;100.00;99016.16;5141041;28;20047;-58
2023/03/19 04:48:22;;;;;;;6.75;3.17;;;;;;;0.61;100.00;99012.38;5140309;28;20360;-56
2023/03/19 04:50:51;;;;;;;7.15;3.30;;;;;;;1.03;100.00;99009.53;5139929;28;20093;-62
2023/03/19 04:53:17;;;;;;;6.72;2.80;;;;;;;0.91;100.00;99056.78;5140062;28;20061;-58
2023/03/19 04:55:43;;;;;;;5.68;3.20;;;;;;;0.60;100.00;99056.63;5139679;28;20083;-62
2023/03/19 04:58:10;;;;;;;11.10;3.38;;;;;;;1.38;100.00;99045.72;5139959;28;20479;-62
2023/03/19 05:00:37;;;;;;;7.88;3.60;;;;;;;1.56;100.00;99087.16;5139623;28;20047;-57
2023/03/19 05:03:03;;;;;;;8.77;3.58;;;;;;;1.95;100.00;99142.44;5139957;28;20397;-62
2023/03/19 05:05:29;;;;;;;9.38;4.18;;;;;;;3.27;100.00;99165.16;5139435;27;20061;-56
2023/03/19 05:07:56;;;;;;;7.43;3.28;;;;;;;3.13;100.00;99237.59;5139681;28;20086;-61
2023/03/19 05:10:22;;;;;;;10.90;3.10;;;;;;;3.24;100.00;99279.56;5139770;28;20142;-61
2023/03/19 05:12:48;;;;;;;8.20;3.97;;;;;;;3.76;100.00;99276.97;5139352;28;20137;-60
2023/03/19 05:15:14;;;;;;;8.20;3.22;;;;;;;4.11;100.00;99313.09;5139445;28;20058;-59
2023/03/19 05:17:41;;;;;;;9.07;3.85;;;;;;;3.77;100.00;99330.91;5139469;28;20133;-57
2023/03/19 05:20:10;;;;;;;11.27;3.83;;;;;;;3.49;100.00;99315.97;5139686;28;20134;-60
2023/03/19 05:22:36;;;;;;;5.13;3.42;;;;;;;3.81;100.00;99282.25;5139130;28;20367;-59
2023/03/19 05:25:02;;;;;;;8.63;3.92;;;;;;;4.01;100.00;99307.97;5139530;28;20093;-61
2023/03/19 05:27:28;;;;;;;11.02;4.38;;;;;;;4.14;100.00;99279.91;5139151;28;20043;-62
2023/03/19 05:29:55;;;;;;;7.78;3.70;;;;;;;4.51;100.00;99304.00;5139646;28;20324;-60
2023/03/19 05:32:21;;;;;;;8.10;3.70;;;;;;;4.04;100.00;99318.19;5138958;28;20051;-60
2023/03/19 05:34:48;;;;;;;6.50;4.07;;;;;;;3.27;100.00;99284.34;5139116;27;20373;-58
2023/03/19 05:37:14;;;;;;;8.55;4.30;;;;;;;4.10;100.00;99259.94;5139280;28;20043;-61
2023/03/19 05:39:40;;;;;;;8.32;4.32;;;;;;;4.67;100.00;99265.16;5139073;28;20055;-63
2023/03/19 05:42:06;;;;;;;6.55;4.00;;;;;;;4.28;100.00;99289.78;5138801;28;20062;-58
2023/03/19 05:44:32;;;;;;;5.88;3.25;;;;;;;3.65;100.00;99267.56;5138850;28;20134;-64
2023/03/19 05:46:58;;;;;;;5.40;3.53;;;;;;;4.20;100.00;99270.47;5138905;28;20043;-62
2023/03/19 05:49:24;;;;;;;8.63;4.53;;;;;;;4.31;100.00;99257.38;5138188;27;20133;-62
2023/03/19 05:51:51;;;;;;;7.20;3.47;;;;;;;4.65;100.00;99255.72;5138955;28;20058;-60
2023/03/19 05:54:17;;;;;;;6.82;3.47;;;;;;;4.44;100.00;99288.97;5138547;28;20055;-60
2023/03/19 05:56:43;;;;;;;10.63;3.92;;;;;;;4.43;100.00;99295.53;5138968;28;20319;-61
2023/03/19 06:01:53;;;;;;;11.43;4.20;;;;;;;5.32;100.00;99330.31;5138600;28;20104;-62
2023/03/19 06:04:19;;;;;;;7.40;4.28;;;;;;;6.32;100.00;99326.88;5138500;27;20051;-63
2023/03/19 06:06:46;;;;;;;6.47;4.22;;;;;;;5.92;100.00;99351.00;5138615;28;20347;-59
2023/03/19 06:09:12;;;;;;;8.35;4.72;;;;;;;6.53;100.00;99362.31;5138687;28;20047;-63
2023/03/19 06:11:39;;;;;;;8.05;4.63;;;;;;;6.78;100.00;99356.97;5138567;28;20134;-63
2023/03/19 06:14:05;;;;;;;9.18;4.93;;;;;;;6.87;100.00;99368.59;5138478;28;20420;-64
2023/03/19 06:16:31;;;;;;;14.40;5.30;;;;;;;7.52;100.00;99393.41;5138605;28;20052;-59
2023/03/19 06:18:57;;;;;;;7.85;4.90;;;;;;;6.80;100.00;99373.78;5138713;28;20423;-64
2023/03/19 06:21:28;;;;;;;12.82;5.15;;;;;;;8.10;100.00;99382.41;5138245;28;20343;-64
2023/03/19 06:23:54;;;;;;;13.02;4.47;;;;;;;7.47;100.00;99377.28;5138489;28;20051;-64
2023/03/19 06:26:21;;;;;;;9.02;5.00;;;;;;;8.94;100.00;99379.81;5138100;28;20380;-64
2023/03/19 06:28:46;;;;;;;11.10;5.38;;;;;;;7.77;100.00;99386.06;5138246;28;20115;-65
2023/03/19 06:31:12;;;;;;;13.00;5.63;;;;;;;8.80;100.00;99382.16;5138344;28;20281;-63
2023/03/19 06:33:38;;;;;;;10.90;5.40;;;;;;;8.33;100.00;99388.16;5138179;28;20142;-61
2023/03/19 06:36:06;;;;;;;9.88;5.22;;;;;;;8.53;100.00;99386.44;5138253;27;20043;-60
2023/03/19 06:38:32;;;;;;;10.77;5.40;;;;;;;9.78;98.21;99400.75;5138023;28;20058;-63
2023/03/19 06:40:57;;;;;;;8.85;5.60;;;;;;;9.63;95.41;99410.56;5138045;28;20051;-59
2023/03/19 06:43:24;;;;;;;7.90;5.28;;;;;;;10.66;89.21;99416.91;5137904;28;20047;-60
2023/03/19 06:45:50;;;;;;;9.90;5.97;;;;;;;9.59;93.29;99426.09;5138133;28;20420;-62
2023/03/19 06:48:17;;;;;;;7.50;5.43;;;;;;;8.55;100.00;99389.63;5137719;28;20137;-66
2023/03/19 06:50:44;;;;;;;12.38;6.10;;;;;;;9.51;100.00;99402.44;5138185;28;20054;-64
2023/03/19 06:53:10;;;;;;;12.55;6.15;;;;;;;10.95;92.95;99399.09;5137602;28;20409;-66
2023/03/19 06:55:37;;;;;;;13.48;5.75;;;;;;;9.93;96.11;99399.16;5138039;28;20141;-64
2023/03/19 06:58:03;;;;;;;14.93;6.07;;;;;;;9.93;100.00;99394.50;5137620;28;20146;-64
2023/03/19 07:00:29;;;;;;;15.65;6.82;;;;;;;10.58;98.17;99402.25;5136844;27;20049;-66
2023/03/19 07:02:55;;;;;;;15.05;6.68;;;;;;;10.64;93.97;99414.53;5137715;28;20082;-65
2023/03/19 07:05:21;;;;;;;12.20;6.03;;;;;;;10.56;95.53;99407.28;5137532;27;20096;-66
2023/03/19 07:07:47;;;;;;;8.70;5.65;;;;;;;10.77;98.49;99393.25;5137956;28;20051;-66
2023/03/19 07:10:13;;;;;;;10.75;6.15;;;;;;;9.84;98.03;99413.03;5137491;28;20131;-61
2023/03/19 07:12:39;;;;;;;10.40;5.75;;;;;;;9.98;100.00;99396.94;5137950;28;20098;-62
2023/03/19 07:15:06;;;;;;;10.40;5.90;;;;;;;9.49;100.00;99382.81;5137539;28;20047;-64
2023/03/19 07:17:33;;;;;;;9.13;5.70;;;;;;;11.08;100.00;99395.03;5137685;28;20130;-62
2023/03/19 07:19:59;;;;;;;9.05;5.68;;;;;;;10.14;100.00;99407.91;5137329;28;20061;-62
2023/03/19 07:22:25;;;;;;;11.35;6.57;;;;;;;11.64;97.12;99407.44;5137659;28;20078;-62
2023/03/19 07:24:51;;;;;;;18.60;6.65;;;;;;;11.76;91.37;99413.53;5137099;28;20043;-62
2023/03/19 07:27:17;;;;;;;12.15;5.93;;;;;;;10.91;95.61;99412.72;5137243;28;20081;-67
2023/03/19 07:29:42;;;;;;;10.00;5.85;;;;;;;9.92;100.00;99387.41;5137376;28;20141;-68
2023/03/19 07:32:09;;;;;;;12.50;6.85;;;;;;;10.82;100.00;99401.19;5136929;28;20483;-66
2023/03/19 07:34:36;;;;;;;9.82;5.47;;;;;;;10.27;100.00;99400.41;5137266;27;20130;-65
2023/03/19 07:37:01;;;;;;;12.40;8.90;;;;;;;11.20;99.50;99405.88;5137229;28;20051;-67
2023/03/19 07:39:28;;;;;;;8.15;5.88;;;;;;;11.97;94.47;99407.63;5137324;28;20043;-67
2023/03/19 07:41:53;;;;;;;17.02;6.93;;;;;;;12.34;89.18;99420.75;5137180;28;20043;-63
2023/03/19 07:44:19;;;;;;;8.30;5.70;;;;;;;11.34;94.98;99407.28;5137366;28;20062;-62
2023/03/19 07:46:45;;;;;;;12.55;6.68;;;;;;;10.70;100.00;99396.63;5136891;28;20428;-63
2023/03/19 07:49:11;;;;;;;11.65;6.32;;;;;;;11.08;100.00;99392.28;5136795;28;20142;-63
2023/03/19 07:51:38;;;;;;;14.52;7.03;;;;;;;11.07;100.00;99380.53;5136816;28;20047;-65
2023/03/19 07:54:04;;;;;;;11.48;6.47;;;;;;;11.65;99.24;99381.56;5137310;28;20154;-63
2023/03/19 07:56:30;;;;;;;12.80;6.88;;;;;;;11.64;100.00;99382.72;5136665;28;20051;-67
2023/03/19 07:58:56;;;;;;;10.20;5.88;;;;;;;11.10;100.00;99380.97;5138404;28;20043;-68
2023/03/19 08:01:21;;;;;;;12.18;6.68;;;;;;;11.04;100.00;99377.72;5137242;28;20146;-67
2023/03/19 08:03:47;;;;;;;10.50;6.60;;;;;;;11.86;100.00;99372.91;5136667;28;20047;-65
2023/03/19 08:06:14;;;;;;;15.07;7.22;;;;;;;12.47;93.55;99396.59;5136451;27;20051;-63
2023/03/19 08:08:40;;;;;;;12.60;7.82;;;;;;;12.54;95.97;99404.94;5136895;28;20047;-67
2023/03/19 08:11:06;;;;;;;17.50;9.25;;;;;;;13.13;88.19;99402.53;5137716;27;20129;-65
2023/03/19 08:13:32;;;;;;;13.63;6.30;;;;;;;11.32;96.98;99397.44;5140388;28;20051;-65
2023/03/19 08:15:58;;;;;;;17.08;6.97;;;;;;;12.11;95.97;99387.81;5140619;28;20046;-63
2023/03/19 08:18:25;;;;;;;14.82;6.65;;;;;;;12.82;91.43;99398.22;5140377;28;20058;-62
2023/03/19 08:20:51;;;;;;;10.75;5.97;;;;;;;11.71;96.25;99397.38;5140630;28;20132;-65
2023/03/19 08:23:17;;;;;;;13.55;10.60;;;;;;;12.69;94.93;99383.91;5139679;28;20412;-67
2023/03/19 08:25:44;;;;;;;12.77;7.40;;;;;;;12.18;95.69;99392.63;5140516;28;20051;-64
2023/03/19 08:28:10;;;;;;;12.55;6.38;;;;;;;13.57;84.68;99397.13;5139998;28;20093;-65
2023/03/19 08:30:36;;;;;;;11.60;6.53;;;;;;;12.86;87.33;99396.28;5140146;28;20066;-67
2023/03/19 08:33:03;;;;;;;13.98;7.25;;;;;;;12.34;94.27;99381.47;5140196;28;20361;-63
2023/03/19 08:35:29;;;;;;;12.00;6.72;;;;;;;12.42;95.62;99372.16;5139906;27;20145;-67
2023/03/19 08:37:55;;;;;;;12.40;6.30;;;;;;;11.79;97.85;99381.78;5140298;28;20051;-63
2023/03/19 08:40:21;;;;;;;10.48;6.72;;;;;;;12.08;99.57;99366.56;5139957;28;20138;-68
2023/03/19 08:42:48;;;;;;;9.73;6.18;;;;;;;12.78;92.32;99369.88;5139991;28;20049;-63
2023/03/19 08:45:15;;;;;;;10.68;5.88;;;;;;;12.59;93.81;99370.81;5139764;28;20068;-62
2023/03/19 08:47:42;;;;;;;15.02;6.25;;;;;;;12.94;92.81;99370.47;5140176;28;20131;-68
2023/03/19 08:50:09;;;;;;;11.45;5.63;;;;;;;14.73;83.11;99391.28;5139780;28;20047;-68
2023/03/19 08:52:35;;;;;;;13.90;6.93;;;;;;;14.33;83.52;99395.75;5140239;28;20169;-64
2023/03/19 08:55:01;;;;;;;15.65;6.78;;;;;;;14.35;82.94;99387.88;5139601;28;20047;-68
2023/03/19 08:57:27;;;;;;;10.63;6.18;;;;;;;12.65;93.19;99369.31;5139530;28;20055;-68
2023/03/19 08:59:53;;;;;;;11.38;6.47;;;;;;;14.58;83.89;99380.16;5139900;28;20066;-67
2023/03/19 09:02:19;;;;;;;9.73;6.00;;;;;;;13.85;87.03;99370.97;5139620;28;20061;-68
2023/03/19 09:04:45;;;;;;;9.90;5.90;;;;;;;14.21;85.80;99374.00;5139661;27;20047;-67
2023/03/19 09:07:14;;;;;;;10.73;6.45;;;;;;;14.28;86.00;99382.31;5139589;28;20082;-63
2023/03/19 09:09:40;;;;;;;9.82;5.22;;;;;;;13.89;85.04;99380.06;5139836;28;20051;-68
2023/03/19 09:12:08;;;;;;;6.65;4.30;;;;;;;13.19;89.36;99381.75;5139525;28;20116;-65
2023/03/19 09:14:34;;;;;;;6.50;4.38;;;;;;;12.24;99.25;99360.94;5139942;28;20327;-62
2023/03/19 09:17:00;;;;;;;7.63;4.90;;;;;;;12.84;98.78;99355.41;5139528;28;20089;-63
2023/03/19 09:19:27;;;;;;;10.07;5.32;;;;;;;13.02;100.00;99338.31;5139799;28;20138;-68
2023/03/19 09:21:52;;;;;;;7.05;4.88;;;;;;;13.95;94.71;99362.00;5139294;28;20057;-66
2023/03/19 09:24:19;;;;;;;5.78;3.90;;;;;;;12.51;100.00;99347.16;5138246;27;20503;-63
2023/03/19 09:26:45;;;;;;;10.45;4.57;;;;;;;14.54;91.34;99353.72;5139408;28;20328;-67
2023/03/19 09:29:11;;;;;;;10.45;5.13;;;;;;;14.04;91.85;99347.91;5139289;28;20061;-63
2023/03/19 09:31:39;;;;;;;12.07;4.80;;;;;;;13.29;92.05;99350.00;5139433;28;20076;-62
2023/03/19 09:34:06;;;;;;;11.20;4.70;;;;;;;12.75;99.44;99334.84;5138967;27;20062;-68
2023/03/19 09:36:32;;;;;;;8.85;6.50;;;;;;;11.75;100.00;99324.06;5139412;28;20118;-62
2023/03/19 09:38:58;;;;;;;13.88;4.65;;;;;;;12.27;100.00;99309.91;5138935;28;20138;-68
2023/03/19 09:41:33;;;;;;;11.02;6.13;;;;;;;12.59;100.00;99311.09;5139361;28;20133;-65
2023/03/19 09:44:01;;;;;;;20.30;4.45;;;;;;;12.42;100.00;99306.97;5138726;28;20145;-65
2023/03/19 09:46:35;;;;;;;9.18;4.15;;;;;;;13.19;100.00;99307.41;5139338;28;20397;-65
2023/03/19 09:49:11;;;;;;;8.80;4.82;;;;;;;12.67;100.00;99296.28;5138911;28;20046;-68
2023/03/19 09:51:44;;;;;;;8.40;4.75;;;;;;;13.34;99.83;99316.63;5139251;28;20047;-68
2023/03/19 09:54:28;;;;;;;9.73;4.95;;;;;;;11.96;100.00;99300.84;5139248;28;20134;-65
2023/03/19 09:56:55;;;;;;;7.10;4.90;;;;;;;13.01;100.00;99298.19;5138845;28;20134;-68
2023/03/19 09:59:23;;;;;;;6.43;4.25;;;;;;;12.70;100.00;99303.00;5138919;28;20099;-65
2023/03/19 10:01:56;;;;;;;6.00;4.30;;;;;;;12.12;100.00;99311.66;5138670;28;20051;-67
2023/03/19 10:04:43;;;;;;;8.27;4.30;;;;;;;12.48;100.00;99288.19;5138784;27;20054;-67
2023/03/19 10:07:23;;;;;;;8.10;5.82;;;;;;;13.06;100.00;99298.66;5138621;28;20439;-67
2023/03/19 10:10:02;;;;;;;8.43;4.70;;;;;;;13.94;98.08;99315.53;5138644;28;20078;-65
2023/03/19 10:12:44;;;;;;;7.40;4.93;;;;;;;14.28;92.95;99336.22;5138804;28;20424;-65
2023/03/19 10:15:18;;;;;;;8.13;5.10;;;;;;;13.59;94.24;99338.88;5138492;28;20494;-62
2023/03/19 10:17:51;;;;;;;;;;;;;;;12.32;100.00;99323.31;5139246;28;20058;-62
2023/03/19 10:20:28;;;;;;;7.78;4.65;;;;;;;12.47;100.00;99305.84;5138286;28;20323;-65
2023/03/19 10:23:02;;;;;;;9.43;5.00;;;;;;;13.49;100.00;99295.50;5138510;28;20301;-67
2023/03/19 10:25:32;;;;;;;7.80;4.57;;;;;;;12.56;100.00;99306.38;5138594;28;20047;-65
2023/03/19 10:28:01;;;;;;;7.60;5.07;;;;;;;13.34;100.00;99295.41;5138311;28;20051;-64
2023/03/19 10:30:32;;;;;;;7.30;6.60;;;;;;;12.74;100.00;99303.03;5138533;28;20055;-65
2023/03/19 10:33:12;;;;;;;6.93;4.68;;;;;;;13.61;100.00;99295.22;5138041;28;20439;-67
2023/03/19 10:35:43;;;;;;;10.98;5.50;;;;;;;12.93;100.00;99298.13;5137156;27;20355;-64
2023/03/19 10:38:18;;;;;;;6.75;4.75;;;;;;;12.76;100.00;99284.97;5137938;28;20420;-62
2023/03/19 10:40:54;;;;;;;6.25;4.63;;;;;;;13.75;100.00;99287.06;5138407;28;20043;-67
2023/03/19 10:43:23;;;;;;;10.75;5.22;;;;;;;12.98;100.00;99269.47;5138135;28;20047;-67
2023/03/19 10:45:48;;;;;;;9.77;5.45;;;;;;;13.73;100.00;99283.91;5137899;28;20331;-65
2023/03/19 10:48:17;;;;;;;7.53;5.28;;;;;;;13.78;100.00;99300.06;5138250;28;20079;-64
2023/03/19 10:50:49;;;;;;;8.10;5.13;;;;;;;12.58;100.00;99286.72;5137776;28;20054;-62
2023/03/19 10:53:29;;;;;;;8.63;5.70;;;;;;;13.39;100.00;99272.22;5138069;28;20459;-61
2023/03/19 10:56:01;;;;;;;11.85;7.85;;;;;;;13.26;100.00;99268.16;5137845;28;20083;-61
2023/03/19 10:58:29;;;;;;;12.80;4.65;;;;;;;12.85;100.00;99266.19;5137867;28;20051;-62
2023/03/19 11:00:58;;;;;;;5.60;4.40;;;;;;;12.70;100.00;99225.97;5138962;28;20459;-64
2023/03/19 11:03:31;;;;;;;11.60;4.63;;;;;;;12.49;100.00;99245.75;5138277;28;20047;-64
2023/03/19 11:06:06;;;;;;;8.77;5.15;;;;;;;12.91;100.00;99236.38;5137847;27;20124;-62
2023/03/19 11:08:35;;;;;;;7.50;5.00;;;;;;;12.21;100.00;99249.75;5137832;28;20051;-62
2023/03/19 11:11:02;;;;;;;8.82;5.55;;;;;;;12.50;100.00;99208.88;5137917;28;20138;-62
2023/03/19 11:13:28;;;;;;;8.30;5.15;;;;;;;12.53;100.00;99232.88;5137810;28;20055;-66
2023/03/19 11:16:00;;;;;;;9.07;4.75;;;;;;;12.08;100.00;99195.41;5137934;28;20046;-66
2023/03/19 11:18:29;;;;;;;7.72;4.32;;;;;;;11.57;100.00;99182.97;5137525;28;20392;-62
2023/03/19 11:20:58;;;;;;;17.15;4.97;;;;;;;12.10;100.00;99185.63;5137738;28;20134;-63
2023/03/19 11:23:27;;;;;;;5.35;4.18;;;;;;;12.20;100.00;99208.91;5137565;28;20047;-65
2023/03/19 11:25:54;;;;;;;7.10;4.47;;;;;;;12.55;100.00;99199.47;5137611;28;20051;-63
2023/03/19 11:28:25;;;;;;;7.90;4.75;;;;;;;11.76;100.00;99207.56;5137784;28;20095;-62
2023/03/19 11:30:58;;;;;;;8.20;4.50;;;;;;;11.68;100.00;99183.88;5137690;28;20336;-62
2023/03/19 11:33:54;;;;;;;6.55;4.40;;;;;;;11.42;100.00;99165.47;5137620;28;20318;-65